createdAt,value
2023-03-08T00:00:24.970Z,96973.63
2023-03-08T00:02:53.955Z,96974.59
2023-03-08T00:05:21.119Z,96971.03
2023-03-08T00:07:48.207Z,96970.34
2023-03-08T00:10:15.292Z,96991.28
2023-03-08T00:12:42.364Z,96983.50
2023-03-08T00:15:09.445Z,96985.13
2023-03-08T00:17:36.604Z,96980.06
2023-03-08T00:20:04.155Z,96974.22
2023-03-08T00:22:31.229Z,96984.78
2023-03-08T00:24:58.296Z,96985.56
2023-03-08T00:27:25.499Z,96983.94
2023-03-08T00:29:52.586Z,96980.38
2023-03-08T00:32:20.153Z,96983.13
2023-03-08T00:34:47.282Z,96987.38
2023-03-08T00:37:14.366Z,96993.50
2023-03-08T00:39:41.450Z,96986.69
2023-03-08T00:42:09.107Z,96982.59
2023-03-08T00:44:36.201Z,96984.38
2023-03-08T00:47:03.352Z,96977.41
2023-03-08T00:49:30.428Z,96986.84
2023-03-08T00:51:57.505Z,96984.38
2023-03-08T00:54:24.570Z,96981.13
2023-03-08T00:56:51.649Z,96990.53
2023-03-08T01:02:05.835Z,96989.72
2023-03-08T01:04:32.919Z,96989.03
2023-03-08T01:07:00.078Z,96989.31
2023-03-08T01:09:27.178Z,96985.78
2023-03-08T01:11:54.271Z,96985.78
2023-03-08T01:14:21.353Z,96991.94
2023-03-08T01:16:48.453Z,96987.56
2023-03-08T01:22:02.531Z,96988.38
2023-03-08T01:24:29.610Z,96989.47
2023-03-08T01:26:58.850Z,96978.41
2023-03-08T01:29:25.929Z,96989.47
2023-03-08T01:31:52.996Z,96981.00
2023-03-08T01:34:20.089Z,96990.59
2023-03-08T01:36:47.167Z,96988.97
2023-03-08T01:39:14.283Z,96988.00
2023-03-08T01:41:41.356Z,96981.00
2023-03-08T01:44:08.421Z,96982.97
2023-03-08T01:46:35.494Z,96974.34
2023-03-08T01:49:02.571Z,96975.28
2023-03-08T01:51:29.694Z,96979.84
2023-03-08T01:53:56.912Z,96972.84
2023-03-08T01:56:23.999Z,96977.88
2023-03-08T01:58:51.085Z,96979.53
2023-03-08T02:01:18.246Z,96980.81
2023-03-08T02:03:45.360Z,96980.81
2023-03-08T02:06:12.443Z,96991.19
2023-03-08T02:08:39.518Z,96974.94
2023-03-08T02:11:06.659Z,96973.00
2023-03-08T02:13:33.731Z,96968.94
2023-03-08T02:16:00.832Z,96968.94
2023-03-08T02:18:27.905Z,96958.53
2023-03-08T02:20:55.032Z,96964.69
2023-03-08T02:23:22.142Z,96961.13
2023-03-08T02:25:49.226Z,96960.16
2023-03-08T02:28:16.490Z,96954.44
2023-03-08T02:30:43.621Z,96963.22
2023-03-08T02:33:10.853Z,96953.63
2023-03-08T02:35:38.818Z,96954.44
2023-03-08T02:38:05.958Z,96950.38
2023-03-08T02:40:33.045Z,96945.19
2023-03-08T02:43:00.130Z,96940.13
2023-03-08T02:45:27.217Z,96942.72
2023-03-08T02:47:54.285Z,96943.69
2023-03-08T02:50:21.352Z,96942.72
2023-03-08T02:52:48.414Z,96941.91
2023-03-08T02:55:15.468Z,96945.31
2023-03-08T02:57:42.569Z,96947.91
2023-03-08T03:00:09.684Z,96953.28
2023-03-08T03:02:36.786Z,96960.25
2023-03-08T03:05:04.205Z,96962.84
2023-03-08T03:07:31.289Z,96954.38
2023-03-08T03:09:58.413Z,96949.16
2023-03-08T03:12:25.471Z,96954.38
2023-03-08T03:14:52.550Z,96956.16
2023-03-08T03:17:19.606Z,96950.16
2023-03-08T03:19:46.886Z,96952.88
2023-03-08T03:22:13.951Z,96951.13
2023-03-08T03:24:41.103Z,96944.28
2023-03-08T03:29:55.333Z,96939.25
2023-03-08T03:32:22.451Z,96930.63
2023-03-08T03:34:49.746Z,96920.25
2023-03-08T03:37:16.817Z,96929.00
2023-03-08T03:39:43.886Z,96929.31
2023-03-08T03:42:11.184Z,96936.28
2023-03-08T03:44:38.333Z,96935.97
2023-03-08T03:47:05.401Z,96934.22
2023-03-08T03:49:32.457Z,96931.75
2023-03-08T03:51:59.569Z,96929.16
2023-03-08T03:54:26.654Z,96940.34
2023-03-08T03:56:55.500Z,96940.34
2023-03-08T03:59:23.552Z,96942.28
2023-03-08T04:01:51.486Z,96942.28
2023-03-08T04:04:18.569Z,96939.81
2023-03-08T04:06:45.641Z,96936.41
2023-03-08T04:09:12.702Z,96931.22
2023-03-08T04:11:39.777Z,96931.38
2023-03-08T04:14:06.872Z,96930.41
2023-03-08T04:16:34.355Z,96931.22
2023-03-08T04:19:01.557Z,96931.66
2023-03-08T04:21:28.935Z,96929.88
2023-03-08T04:23:56.084Z,96927.28
2023-03-08T04:26:23.158Z,96927.44
2023-03-08T04:28:50.213Z,96927.44
2023-03-08T04:31:17.360Z,96925.78
2023-03-08T04:33:44.509Z,96922.38
2023-03-08T04:36:11.624Z,96912.81
2023-03-08T04:38:38.722Z,96908.59
2023-03-08T04:41:10.247Z,96909.41
2023-03-08T04:43:37.359Z,96900.00
2023-03-08T04:46:04.685Z,96900.00
2023-03-08T04:48:31.824Z,96899.03
2023-03-08T04:50:58.887Z,96892.22
2023-03-08T04:53:25.974Z,96892.22
2023-03-08T04:55:53.033Z,96884.59
2023-03-08T04:58:20.084Z,96882.94
2023-03-08T05:00:47.171Z,96885.53
2023-03-08T05:03:14.234Z,96884.59
2023-03-08T05:05:41.305Z,96882.13
2023-03-08T05:08:08.367Z,96871.75
2023-03-08T05:10:35.423Z,96881.31
2023-03-08T05:13:02.514Z,96870.13
2023-03-08T05:15:29.580Z,96860.84
2023-03-08T05:17:56.638Z,96858.25
2023-03-08T05:20:23.694Z,96858.41
2023-03-08T05:22:58.682Z,96849.66
2023-03-08T05:25:26.448Z,96852.91
2023-03-08T05:27:53.621Z,96854.84
2023-03-08T05:30:20.665Z,96851.44
2023-03-08T05:32:47.794Z,96854.66
2023-03-08T05:35:14.899Z,96851.44
2023-03-08T05:37:41.966Z,96854.19
2023-03-08T05:40:09.914Z,96855.81
2023-03-08T05:42:37.062Z,96853.22
2023-03-08T05:45:04.234Z,96845.56
2023-03-08T05:47:31.411Z,96861.13
2023-03-08T05:49:58.501Z,96857.72
2023-03-08T05:52:25.565Z,96853.50
2023-03-08T05:54:52.636Z,96849.28
2023-03-08T05:57:19.729Z,96857.88
2023-03-08T05:59:46.829Z,96864.84
2023-03-08T06:02:13.990Z,96865.66
2023-03-08T06:04:41.109Z,96867.28
2023-03-08T06:07:08.170Z,96876.69
2023-03-08T06:09:35.266Z,96870.84
2023-03-08T06:12:02.324Z,96873.28
2023-03-08T06:14:29.456Z,96877.53
2023-03-08T06:16:56.625Z,96875.88
2023-03-08T06:19:23.729Z,96881.06
2023-03-08T06:21:50.920Z,96874.25
2023-03-08T06:24:18.016Z,96872.47
2023-03-08T06:26:45.226Z,96872.34
2023-03-08T06:29:12.386Z,96870.84
2023-03-08T06:31:39.488Z,96863.72
2023-03-08T06:34:06.611Z,96865.38
2023-03-08T06:36:33.688Z,96863.88
2023-03-08T06:39:01.006Z,96868.91
2023-03-08T06:41:29.653Z,96873.16
2023-03-08T06:43:56.908Z,96856.78
2023-03-08T06:46:24.033Z,96859.06
2023-03-08T06:48:51.240Z,96848.03
2023-03-08T06:51:18.502Z,96853.22
2023-03-08T06:53:45.642Z,96858.25
2023-03-08T06:56:12.704Z,96857.44
2023-03-08T06:58:39.772Z,96859.06
2023-03-08T07:01:06.878Z,96863.72
2023-03-08T07:03:33.944Z,96862.78
2023-03-08T07:06:01.017Z,96859.22
2023-03-08T07:08:28.102Z,96862.63
2023-03-08T07:10:55.194Z,96859.72
2023-03-08T07:13:23.767Z,96854.38
2023-03-08T07:15:50.965Z,96862.69
2023-03-08T07:18:18.069Z,96856.03
2023-03-08T07:20:45.133Z,96859.44
2023-03-08T07:23:12.206Z,96861.88
2023-03-08T07:25:42.043Z,96857.50
2023-03-08T07:28:09.101Z,96849.72
2023-03-08T07:30:36.159Z,96852.31
2023-03-08T07:33:03.335Z,96849.72
2023-03-08T07:35:30.506Z,96856.41
2023-03-08T07:37:57.562Z,96865.97
2023-03-08T07:40:24.688Z,96856.41
2023-03-08T07:42:51.784Z,96857.22
2023-03-08T07:45:18.859Z,96855.31
2023-03-08T07:47:45.931Z,96855.31
2023-03-08T07:50:13.034Z,96859.66
2023-03-08T07:52:40.109Z,96859.53
2023-03-08T07:55:07.194Z,96860.50
2023-03-08T07:57:34.278Z,96866.50
2023-03-08T08:00:01.368Z,96871.81
2023-03-08T08:02:28.473Z,96866.50
2023-03-08T08:04:55.598Z,96866.63
2023-03-08T08:07:22.698Z,96864.84
2023-03-08T08:09:50.593Z,96862.25
2023-03-08T08:12:17.682Z,96863.09
2023-03-08T08:14:44.753Z,96859.66
2023-03-08T08:17:11.832Z,96860.34
2023-03-08T08:19:38.935Z,96868.13
2023-03-08T08:22:06.518Z,96868.13
2023-03-08T08:24:33.689Z,96856.78
2023-03-08T08:27:00.804Z,96848.31
2023-03-08T08:29:27.883Z,96839.56
2023-03-08T08:31:55.294Z,96833.69
2023-03-08T08:34:22.354Z,96829.34
2023-03-08T08:36:50.637Z,96823.47
2023-03-08T08:39:17.711Z,96810.22
2023-03-08T08:41:44.867Z,96806.94
2023-03-08T08:44:12.022Z,96797.25
2023-03-08T08:46:39.117Z,96790.94
2023-03-08T08:49:06.190Z,96786.56
2023-03-08T08:51:33.260Z,96777.81
2023-03-08T08:54:00.401Z,96775.38
2023-03-08T08:56:28.526Z,96766.09
2023-03-08T08:58:56.038Z,96752.16
2023-03-08T09:01:23.539Z,96751.94
2023-03-08T09:03:50.669Z,96747.66
2023-03-08T09:06:17.822Z,96740.38
2023-03-08T09:08:44.888Z,96738.44
2023-03-08T09:11:12.045Z,96735.84
2023-03-08T09:13:41.762Z,96730.13
2023-03-08T09:16:08.906Z,96721.41
2023-03-08T09:18:36.050Z,96703.06
2023-03-08T09:21:03.116Z,96709.88
2023-03-08T09:23:30.244Z,96700.69
2023-03-08T09:25:57.403Z,96696.59
2023-03-08T09:28:24.472Z,96678.13
2023-03-08T09:30:51.607Z,96669.38
2023-03-08T09:33:18.707Z,96665.16
2023-03-08T09:35:45.926Z,96660.63
2023-03-08T09:38:13.071Z,96668.56
2023-03-08T09:40:40.138Z,96647.13
2023-03-08T09:43:08.345Z,96644.53
2023-03-08T09:45:36.240Z,96631.22
2023-03-08T09:48:05.256Z,96617.72
2023-03-08T09:50:33.848Z,96599.09
2023-03-08T09:53:10.530Z,96600.28
2023-03-08T09:55:37.663Z,96590.03
2023-03-08T09:58:04.734Z,96585.97
2023-03-08T10:00:31.877Z,96585.81
2023-03-08T10:02:59.162Z,96582.25
2023-03-08T10:05:26.400Z,96566.72
2023-03-08T10:07:53.479Z,96564.25
2023-03-08T10:10:23.008Z,96553.56
2023-03-08T10:12:50.611Z,96553.41
2023-03-08T10:15:17.941Z,96542.91
2023-03-08T10:17:45.066Z,96544.69
2023-03-08T10:22:42.475Z,96532.66
2023-03-08T10:25:09.619Z,96544.19
2023-03-08T10:27:36.740Z,96539.16
2023-03-08T10:30:03.823Z,96534.44
2023-03-08T10:32:30.941Z,96536.91
2023-03-08T10:34:58.054Z,96545.31
2023-03-08T10:37:25.135Z,96529.41
2023-03-08T10:39:53.404Z,96539.50
2023-03-08T10:42:21.232Z,96541.28
2023-03-08T10:44:48.330Z,96536.91
2023-03-08T10:47:15.397Z,96541.09
2023-03-08T10:49:43.571Z,96540.94
2023-03-08T10:52:10.638Z,96537.06
2023-03-08T10:54:37.736Z,96518.72
2023-03-08T10:57:04.828Z,96511.25
2023-03-08T10:59:35.108Z,96513.53
2023-03-08T11:02:02.255Z,96516.63
2023-03-08T11:04:29.523Z,96515.66
2023-03-08T11:06:56.657Z,96516.78
2023-03-08T11:09:24.177Z,96518.06
2023-03-08T11:11:51.296Z,96505.75
2023-03-08T11:14:18.444Z,96507.38
2023-03-08T11:16:45.633Z,96497.16
2023-03-08T11:22:00.292Z,96493.25
2023-03-08T11:24:27.438Z,96490.97
2023-03-08T11:26:54.616Z,96492.59
2023-03-08T11:29:21.852Z,96484.63
2023-03-08T11:31:48.969Z,96478.19
2023-03-08T11:37:03.372Z,96488.88
2023-03-08T11:39:30.489Z,96479.81
2023-03-08T11:41:57.552Z,96467.47
2023-03-08T11:44:24.628Z,96468.91
2023-03-08T11:46:51.728Z,96462.56
2023-03-08T11:49:18.824Z,96466.47
2023-03-08T11:51:45.903Z,96461.47
2023-03-08T11:54:13.459Z,96447.53
2023-03-08T11:56:40.550Z,96449.31
2023-03-08T11:59:07.614Z,96442.81
2023-03-08T12:01:34.721Z,96448.84
2023-03-08T12:04:04.151Z,96425.59
2023-03-08T12:06:33.639Z,96421.41
2023-03-08T12:09:00.913Z,96425.59
2023-03-08T12:11:28.102Z,96429.69
2023-03-08T12:13:55.170Z,96417.81
2023-03-08T12:16:22.328Z,96407.91
2023-03-08T12:18:49.659Z,96406.00
2023-03-08T12:21:16.776Z,96416.53
2023-03-08T12:23:43.919Z,96404.03
2023-03-08T12:26:11.239Z,96395.44
2023-03-08T12:28:38.381Z,96392.03
2023-03-08T12:31:07.863Z,96380.66
2023-03-08T12:33:40.144Z,96380.66
2023-03-08T12:36:07.380Z,96380.66
2023-03-08T12:38:34.824Z,96366.88
2023-03-08T12:41:02.524Z,96356.16
2023-03-08T12:49:03.650Z,96334.91
2023-03-08T12:51:31.653Z,96337.31
2023-03-08T12:53:58.806Z,96344.16
2023-03-08T12:56:27.035Z,96336.19
2023-03-08T12:58:56.242Z,96333.91
2023-03-08T13:01:23.831Z,96342.06
2023-03-08T13:03:51.020Z,96336.22
2023-03-08T13:06:18.091Z,96341.69
2023-03-08T13:08:45.216Z,96337.03
2023-03-08T13:11:12.317Z,96337.19
2023-03-08T13:13:40.431Z,96331.69
2023-03-08T13:16:07.549Z,96335.91
2023-03-08T13:18:34.711Z,96336.38
2023-03-08T13:21:01.834Z,96334.78
2023-03-08T13:23:29.044Z,96337.50
2023-03-08T13:25:56.232Z,96324.38
2023-03-08T13:31:10.535Z,96326.63
2023-03-08T13:33:37.629Z,96321.75
2023-03-08T13:36:04.790Z,96331.50
2023-03-08T13:38:31.954Z,96314.00
2023-03-08T13:40:59.103Z,96318.38
2023-03-08T13:43:26.244Z,96314.94
2023-03-08T13:45:53.371Z,96317.22
2023-03-08T13:48:20.558Z,96319.00
2023-03-08T13:50:47.677Z,96311.41
2023-03-08T13:53:15.013Z,96303.44
2023-03-08T13:55:42.146Z,96303.25
2023-03-08T13:58:09.219Z,96310.72
2023-03-08T14:00:36.406Z,96304.56
2023-03-08T14:03:03.718Z,96302.63
2023-03-08T14:05:30.829Z,96293.53
2023-03-08T14:07:57.948Z,96291.25
2023-03-08T14:10:27.384Z,96284.75
2023-03-08T14:12:54.498Z,96278.75
2023-03-08T14:18:11.029Z,96269.19
2023-03-08T14:20:38.190Z,96269.84
2023-03-08T14:23:05.412Z,96262.16
2023-03-08T14:25:32.577Z,96261.84
2023-03-08T14:27:59.705Z,96264.13
2023-03-08T14:33:13.789Z,96248.03
2023-03-08T14:35:41.384Z,96246.09
2023-03-08T14:38:08.518Z,96244.81
2023-03-08T14:43:22.881Z,96247.53
2023-03-08T14:45:49.952Z,96257.78
2023-03-08T14:48:17.128Z,96255.19
2023-03-08T14:50:44.218Z,96245.28
2023-03-08T14:53:11.272Z,96247.69
2023-03-08T14:55:39.961Z,96244.09
2023-03-08T14:58:07.038Z,96232.09
2023-03-08T15:03:21.105Z,96229.69
2023-03-08T15:05:48.169Z,96238.44
2023-03-08T15:08:15.301Z,96243.28
2023-03-08T15:10:42.402Z,96231.78
2023-03-08T15:13:09.476Z,96228.84
2023-03-08T15:18:23.587Z,96231.13
2023-03-08T15:20:50.657Z,96234.19
2023-03-08T15:23:17.729Z,96234.03
2023-03-08T15:25:45.194Z,96227.69
2023-03-08T15:28:12.289Z,96234.84
2023-03-08T15:30:39.370Z,96238.75
2023-03-08T15:33:06.470Z,96240.84
2023-03-08T15:35:33.588Z,96245.53
2023-03-08T15:38:00.702Z,96249.44
2023-03-08T15:40:27.796Z,96241.50
2023-03-08T15:42:54.889Z,96247.66
2023-03-08T15:45:21.956Z,96252.19
2023-03-08T15:47:49.060Z,96256.41
2023-03-08T15:50:16.565Z,96250.69
2023-03-08T15:52:43.945Z,96264.53
2023-03-08T15:55:11.747Z,96251.56
2023-03-08T15:57:39.318Z,96238.91
2023-03-08T16:00:09.047Z,96235.19
2023-03-08T16:05:24.946Z,96231.25
2023-03-08T16:07:52.006Z,96239.38
2023-03-08T16:10:19.134Z,96235.00
2023-03-08T16:12:46.235Z,96238.88
2023-03-08T16:15:13.353Z,96218.22
2023-03-08T16:17:40.615Z,96225.22
2023-03-08T16:20:07.796Z,96218.06
2023-03-08T16:22:34.886Z,96216.28
2023-03-08T16:25:02.025Z,96202.97
2023-03-08T16:30:16.150Z,96194.03
2023-03-08T16:32:43.285Z,96197.28
2023-03-08T16:35:10.396Z,96202.31
2023-03-08T16:37:37.509Z,96199.66
2023-03-08T16:40:06.064Z,96204.22
2023-03-08T16:45:20.165Z,96200.50
2023-03-08T16:47:47.260Z,96192.25
2023-03-08T16:50:14.369Z,96197.28
2023-03-08T16:52:41.440Z,96192.72
2023-03-08T16:55:08.553Z,96186.84
2023-03-08T16:57:38.380Z,96192.38
2023-03-08T17:00:06.570Z,96181.97
2023-03-08T17:02:33.711Z,96187.13
2023-03-08T17:05:00.883Z,96185.06
2023-03-08T17:10:15.043Z,96202.41
2023-03-08T17:12:42.219Z,96194.25
2023-03-08T17:15:10.926Z,96194.06
2023-03-08T17:17:38.012Z,96196.56
2023-03-08T17:20:05.310Z,96200.31
2023-03-08T17:22:33.786Z,96199.63
2023-03-08T17:25:00.884Z,96208.88
2023-03-08T17:30:15.641Z,96199.63
2023-03-08T17:32:42.828Z,96202.06
2023-03-08T17:35:09.955Z,96217.47
2023-03-08T17:37:41.894Z,96212.91
2023-03-08T17:40:09.138Z,96208.72
2023-03-08T17:42:36.226Z,96206.25
2023-03-08T17:45:06.440Z,96211.13
2023-03-08T17:47:33.658Z,96212.13
2023-03-08T17:50:00.848Z,96218.47
2023-03-08T17:55:14.980Z,96226.41
2023-03-08T17:57:42.073Z,96220.50
2023-03-08T18:00:11.200Z,96214.34
2023-03-08T18:02:38.427Z,96218.88
2023-03-08T18:05:05.601Z,96215.47
2023-03-08T18:07:32.686Z,96222.94
2023-03-08T18:10:01.802Z,96226.53
2023-03-08T18:12:28.897Z,96220.84
2023-03-08T18:14:55.965Z,96226.41
2023-03-08T18:17:23.036Z,96220.53
2023-03-08T18:19:50.169Z,96212.25
2023-03-08T18:22:17.266Z,96216.13
2023-03-08T18:24:45.448Z,96215.13
2023-03-08T18:27:12.513Z,96218.53
2023-03-08T18:29:39.660Z,96213.34
2023-03-08T18:32:06.826Z,96211.03
2023-03-08T18:34:34.039Z,96213.69
2023-03-08T18:37:01.115Z,96220.34
2023-03-08T18:39:28.311Z,96231.03
2023-03-08T18:41:56.897Z,96200.16
2023-03-08T18:44:24.159Z,96206.53
2023-03-08T18:46:51.231Z,96201.00
2023-03-08T18:49:18.405Z,96209.41
2023-03-08T18:51:45.580Z,96210.22
2023-03-08T18:54:13.482Z,96204.22
2023-03-08T18:56:43.611Z,96201.94
2023-03-08T18:59:10.688Z,96204.72
2023-03-08T19:04:24.801Z,96188.94
2023-03-08T19:06:51.927Z,96174.53
2023-03-08T19:09:19.106Z,96171.75
2023-03-08T19:11:48.032Z,96163.13
2023-03-08T19:14:15.206Z,96168.50
2023-03-08T19:16:42.322Z,96179.88
2023-03-08T19:19:09.525Z,96194.38
2023-03-08T19:21:36.689Z,96201.38
2023-03-08T19:24:03.746Z,96199.41
2023-03-08T19:26:37.050Z,96195.66
2023-03-08T19:29:04.214Z,96194.06
2023-03-08T19:31:31.601Z,96194.38
2023-03-08T19:33:58.774Z,96193.59
2023-03-08T19:36:25.864Z,96194.72
2023-03-08T19:38:52.997Z,96199.13
2023-03-08T19:41:20.083Z,96200.91
2023-03-08T19:43:47.166Z,96206.25
2023-03-08T19:46:17.823Z,96205.59
2023-03-08T19:48:45.664Z,96216.34
2023-03-08T19:51:12.804Z,96216.16
2023-03-08T19:53:39.862Z,96212.75
2023-03-08T19:56:07.007Z,96215.53
2023-03-08T19:58:34.125Z,96206.91
2023-03-08T20:01:01.259Z,96207.06
2023-03-08T20:06:15.322Z,96212.13
2023-03-08T20:08:42.381Z,96222.53
2023-03-08T20:11:09.449Z,96231.47
2023-03-08T20:13:36.522Z,96220.72
2023-03-08T20:16:03.586Z,96215.34
2023-03-08T20:18:30.714Z,96222.00
2023-03-08T20:20:59.021Z,96234.53
2023-03-08T20:26:13.185Z,96225.91
2023-03-08T20:28:40.257Z,96232.91
2023-03-08T20:31:07.366Z,96224.00
2023-03-08T20:33:34.439Z,96222.03
2023-03-08T20:36:01.543Z,96225.78
2023-03-08T20:38:28.703Z,96226.78
2023-03-08T20:40:55.758Z,96236.38
2023-03-08T20:43:22.820Z,96232.97
2023-03-08T20:45:49.926Z,96244.16
2023-03-08T20:48:17.309Z,96241.22
2023-03-08T20:50:44.399Z,96235.19
2023-03-08T20:53:11.456Z,96235.38
2023-03-08T20:55:38.514Z,96242.03
2023-03-08T20:58:05.777Z,96243.97
2023-03-08T21:00:32.834Z,96248.03
2023-03-08T21:03:00.012Z,96246.09
2023-03-08T21:08:14.130Z,96251.50
2023-03-08T21:10:41.361Z,96253.28
2023-03-08T21:13:08.490Z,96251.00
2023-03-08T21:15:35.600Z,96254.41
2023-03-08T21:18:02.668Z,96250.38
2023-03-08T21:20:29.850Z,96247.63
2023-03-08T21:22:56.929Z,96237.38
2023-03-08T21:25:24.017Z,96240.16
2023-03-08T21:27:51.090Z,96231.38
2023-03-08T21:30:18.195Z,96244.53
2023-03-08T21:32:45.331Z,96244.34
2023-03-08T21:35:12.482Z,96241.13
2023-03-08T21:37:39.557Z,96241.94
2023-03-08T21:40:07.293Z,96238.88
2023-03-08T21:42:34.718Z,96232.69
2023-03-08T21:45:01.810Z,96240.47
2023-03-08T21:47:29.001Z,96233.00
2023-03-08T21:49:56.073Z,96241.00
2023-03-08T21:52:23.143Z,96240.00
2023-03-08T21:54:50.233Z,96243.41
2023-03-08T21:57:17.342Z,96239.81
2023-03-08T21:59:44.396Z,96234.19
2023-03-08T22:02:11.501Z,96226.72
2023-03-08T22:04:38.683Z,96211.13
2023-03-08T22:07:05.848Z,96210.13
2023-03-08T22:09:32.917Z,96186.75
2023-03-08T22:12:00.034Z,96189.53
2023-03-08T22:14:27.444Z,96181.75
2023-03-08T22:16:56.461Z,96191.28
2023-03-08T22:19:23.652Z,96196.50
2023-03-08T22:21:50.865Z,96197.47
2023-03-08T22:24:17.951Z,96201.34
2023-03-08T22:26:45.095Z,96204.13
2023-03-08T22:29:12.164Z,96199.44
2023-03-08T22:31:39.267Z,96190.66
2023-03-08T22:34:07.762Z,96190.19
2023-03-08T22:36:34.978Z,96189.22
2023-03-08T22:39:02.064Z,96191.19
2023-03-08T22:41:29.158Z,96184.34
2023-03-08T22:43:56.252Z,96176.91
2023-03-08T22:46:23.375Z,96180.47
2023-03-08T22:48:50.540Z,96175.13
2023-03-08T22:51:17.719Z,96171.22
2023-03-08T22:53:44.813Z,96170.88
2023-03-08T22:56:11.994Z,96175.75
2023-03-08T22:58:39.048Z,96174.94
2023-03-08T23:01:06.128Z,96169.94
2023-03-08T23:06:20.192Z,96173.03
2023-03-08T23:08:47.269Z,96167.84
2023-03-08T23:11:14.409Z,96174.97
2023-03-08T23:13:41.896Z,96163.47
2023-03-08T23:16:09.005Z,96162.00
2023-03-08T23:18:36.137Z,96169.13
2023-03-08T23:21:03.608Z,96164.78
2023-03-08T23:23:30.764Z,96164.94
2023-03-08T23:25:58.181Z,96168.19
2023-03-08T23:28:25.296Z,96166.53
2023-03-08T23:30:52.448Z,96161.34
2023-03-08T23:33:19.556Z,96158.13
2023-03-08T23:35:46.784Z,96153.72
2023-03-08T23:38:13.854Z,96141.53
2023-03-08T23:40:40.954Z,96138.16
2023-03-08T23:43:08.070Z,96136.88
2023-03-08T23:45:35.186Z,96140.09
2023-03-08T23:48:03.460Z,96138.31
2023-03-08T23:50:30.741Z,96140.56
2023-03-08T23:52:57.833Z,96135.69
2023-03-08T23:55:24.925Z,96134.41
2023-03-08T23:57:51.998Z,96128.56
